createdAt,value
2022-07-26T00:00:06.651Z,73.26
2022-07-26T00:02:36.981Z,72.00
2022-07-26T00:05:07.544Z,73.29
2022-07-26T00:07:37.641Z,77.40
2022-07-26T00:10:09.099Z,77.40
2022-07-26T00:12:39.900Z,79.20
2022-07-26T00:15:12.376Z,76.66
2022-07-26T00:17:42.324Z,75.23
2022-07-26T00:20:12.344Z,76.74
2022-07-26T00:22:42.253Z,76.87
2022-07-26T00:25:12.277Z,79.38
2022-07-26T00:27:42.820Z,76.73
2022-07-26T00:30:14.356Z,76.78
2022-07-26T00:32:44.951Z,77.40
2022-07-26T00:35:14.310Z,77.38
2022-07-26T00:37:44.020Z,78.03
2022-07-26T00:40:15.048Z,78.12
2022-07-26T00:42:45.712Z,81.97
2022-07-26T00:45:16.769Z,83.71
2022-07-26T00:47:45.924Z,87.73
2022-07-26T00:50:16.170Z,89.05
2022-07-26T00:52:45.589Z,91.59
2022-07-26T00:55:15.089Z,93.78
2022-07-26T00:57:44.177Z,92.42
2022-07-26T01:00:14.482Z,93.86
2022-07-26T01:02:43.616Z,91.66
2022-07-26T01:05:12.684Z,92.52
2022-07-26T01:07:41.739Z,95.49
2022-07-26T01:10:12.873Z,97.94
2022-07-26T01:12:43.152Z,98.75
2022-07-26T01:15:13.137Z,99.01
2022-07-26T01:17:42.216Z,98.33
2022-07-26T01:20:12.414Z,93.89
2022-07-26T01:22:42.442Z,92.15
2022-07-26T01:25:12.136Z,91.15
2022-07-26T01:27:40.904Z,90.64
2022-07-26T01:30:11.289Z,93.00
2022-07-26T01:32:40.166Z,95.18
2022-07-26T01:35:10.142Z,99.61
2022-07-26T01:37:38.927Z,99.38
2022-07-26T01:40:09.000Z,95.89
2022-07-26T01:42:39.745Z,95.65
2022-07-26T01:45:12.725Z,96.43
2022-07-26T01:47:41.538Z,95.58
2022-07-26T01:50:10.606Z,96.50
2022-07-26T01:52:39.417Z,98.90
2022-07-26T01:55:08.382Z,98.30
2022-07-26T01:57:38.176Z,95.78
2022-07-26T02:00:07.820Z,91.50
2022-07-26T02:02:37.095Z,93.57
2022-07-26T02:05:06.624Z,94.64
2022-07-26T02:07:42.593Z,96.00
2022-07-26T02:10:12.644Z,98.67
2022-07-26T02:12:41.699Z,100.00
2022-07-26T02:15:11.396Z,100.00
2022-07-26T02:17:40.294Z,100.00
2022-07-26T02:20:10.823Z,100.00
2022-07-26T02:22:40.587Z,100.00
2022-07-26T02:25:09.633Z,100.00
2022-07-26T02:27:38.458Z,100.00
2022-07-26T02:30:07.681Z,100.00
2022-07-26T02:32:36.418Z,100.00
2022-07-26T02:35:05.399Z,100.00
2022-07-26T02:37:35.484Z,100.00
2022-07-26T02:40:04.772Z,100.00
2022-07-26T02:42:33.751Z,100.00
2022-07-26T02:45:02.506Z,100.00
2022-07-26T02:47:33.070Z,100.00
2022-07-26T02:50:01.747Z,100.00
2022-07-26T02:52:30.546Z,100.00
2022-07-26T02:54:59.395Z,100.00
2022-07-26T02:57:28.331Z,100.00
2022-07-26T02:59:58.580Z,100.00
2022-07-26T03:02:27.395Z,100.00
2022-07-26T03:04:56.232Z,100.00
2022-07-26T03:07:25.020Z,100.00
2022-07-26T03:09:54.669Z,100.00
2022-07-26T03:12:24.003Z,100.00
2022-07-26T03:14:52.898Z,100.00
2022-07-26T03:17:21.772Z,100.00
2022-07-26T03:19:50.658Z,100.00
2022-07-26T03:22:20.723Z,100.00
2022-07-26T03:24:49.450Z,100.00
2022-07-26T03:27:18.165Z,100.00
2022-07-26T03:29:46.880Z,100.00
2022-07-26T03:32:16.664Z,100.00
2022-07-26T03:34:45.490Z,100.00
2022-07-26T03:37:14.214Z,100.00
2022-07-26T03:39:42.986Z,100.00
2022-07-26T03:42:12.049Z,100.00
2022-07-26T03:44:40.937Z,100.00
2022-07-26T03:47:09.715Z,100.00
2022-07-26T03:49:39.653Z,100.00
2022-07-26T03:52:08.453Z,100.00
2022-07-26T03:54:37.536Z,100.00
2022-07-26T03:57:06.388Z,100.00
2022-07-26T03:59:35.589Z,100.00
2022-07-26T04:02:05.311Z,100.00
2022-07-26T04:04:34.333Z,100.00
2022-07-26T04:07:04.202Z,100.00
2022-07-26T04:09:34.063Z,100.00
2022-07-26T04:12:02.915Z,100.00
2022-07-26T04:14:31.743Z,100.00
2022-07-26T04:17:00.570Z,100.00
2022-07-26T04:19:29.318Z,100.00
2022-07-26T04:21:58.073Z,100.00
2022-07-26T04:24:26.866Z,100.00
2022-07-26T04:26:55.684Z,100.00
2022-07-26T04:29:24.478Z,100.00
2022-07-26T04:31:53.221Z,100.00
2022-07-26T04:34:22.009Z,100.00
2022-07-26T04:36:50.736Z,100.00
2022-07-26T04:39:21.100Z,100.00
2022-07-26T04:41:49.914Z,100.00
2022-07-26T04:44:18.749Z,100.00
2022-07-26T04:46:47.430Z,100.00
2022-07-26T04:49:16.408Z,100.00
2022-07-26T04:51:45.311Z,100.00
2022-07-26T04:54:15.570Z,100.00
2022-07-26T04:56:44.283Z,100.00
2022-07-26T04:59:13.112Z,100.00
2022-07-26T05:01:41.876Z,100.00
2022-07-26T05:04:11.122Z,100.00
2022-07-26T05:06:40.093Z,100.00
2022-07-26T05:09:10.651Z,100.00
2022-07-26T05:11:40.333Z,100.00
2022-07-26T05:14:09.325Z,100.00
2022-07-26T05:16:39.234Z,100.00
2022-07-26T05:19:08.797Z,100.00
2022-07-26T05:21:37.509Z,100.00
2022-07-26T05:24:08.041Z,100.00
2022-07-26T05:26:36.934Z,100.00
2022-07-26T05:29:06.172Z,100.00
2022-07-26T05:31:34.870Z,100.00
2022-07-26T05:34:03.894Z,100.00
2022-07-26T05:36:32.594Z,100.00
2022-07-26T05:39:01.394Z,100.00
2022-07-26T05:41:30.178Z,100.00
2022-07-26T05:43:59.466Z,100.00
2022-07-26T05:46:28.324Z,100.00
2022-07-26T05:48:57.213Z,100.00
2022-07-26T05:51:26.076Z,100.00
2022-07-26T05:53:56.403Z,100.00
2022-07-26T05:56:26.211Z,100.00
2022-07-26T05:58:55.059Z,100.00
2022-07-26T06:01:23.953Z,100.00
2022-07-26T06:03:53.305Z,100.00
2022-07-26T06:06:22.551Z,100.00
2022-07-26T06:08:51.866Z,100.00
2022-07-26T06:11:21.611Z,100.00
2022-07-26T06:13:53.657Z,100.00
2022-07-26T06:16:20.786Z,100.00
2022-07-26T06:18:49.613Z,100.00
2022-07-26T06:21:18.367Z,100.00
2022-07-26T06:23:47.092Z,100.00
2022-07-26T06:26:16.683Z,100.00
2022-07-26T06:28:45.416Z,100.00
2022-07-26T06:31:14.185Z,100.00
2022-07-26T06:33:42.923Z,100.00
2022-07-26T06:36:11.828Z,100.00
2022-07-26T06:38:40.641Z,100.00
2022-07-26T06:41:09.388Z,100.00
2022-07-26T06:43:38.320Z,100.00
2022-07-26T06:46:07.230Z,100.00
2022-07-26T06:48:36.308Z,100.00
2022-07-26T06:51:08.335Z,100.00
2022-07-26T06:53:37.673Z,100.00
2022-07-26T06:56:06.410Z,100.00
2022-07-26T06:58:35.143Z,100.00
2022-07-26T07:01:04.340Z,100.00
2022-07-26T07:03:33.101Z,100.00
2022-07-26T07:06:01.813Z,100.00
2022-07-26T07:08:30.671Z,100.00
2022-07-26T07:11:00.740Z,100.00
2022-07-26T07:13:30.733Z,100.00
2022-07-26T07:15:59.533Z,100.00
2022-07-26T07:18:28.400Z,100.00
2022-07-26T07:20:57.199Z,100.00
2022-07-26T07:23:25.887Z,100.00
2022-07-26T07:25:54.621Z,100.00
2022-07-26T07:28:24.428Z,100.00
2022-07-26T07:30:53.165Z,100.00
2022-07-26T07:33:23.353Z,100.00
2022-07-26T07:35:53.826Z,100.00
2022-07-26T07:38:22.692Z,100.00
2022-07-26T07:40:51.481Z,100.00
2022-07-26T07:43:20.313Z,100.00
2022-07-26T07:45:49.033Z,100.00
2022-07-26T07:48:19.043Z,100.00
2022-07-26T07:50:48.136Z,100.00
2022-07-26T07:53:16.845Z,100.00
2022-07-26T07:55:48.190Z,100.00
2022-07-26T07:58:18.827Z,100.00
2022-07-26T08:00:48.143Z,100.00
2022-07-26T08:03:18.785Z,100.00
2022-07-26T08:05:49.926Z,100.00
2022-07-26T08:08:22.623Z,100.00
2022-07-26T08:10:52.971Z,100.00
2022-07-26T08:13:22.983Z,100.00
2022-07-26T08:15:53.292Z,100.00
2022-07-26T08:18:23.213Z,100.00
2022-07-26T08:20:54.229Z,100.00
2022-07-26T08:23:23.257Z,100.00
2022-07-26T08:25:57.872Z,100.00
2022-07-26T08:28:45.181Z,100.00
2022-07-26T08:30:53.413Z,100.00
2022-07-26T08:33:23.399Z,100.00
2022-07-26T08:35:54.887Z,100.00
2022-07-26T08:38:22.871Z,100.00
2022-07-26T08:40:51.641Z,100.00
2022-07-26T08:43:21.305Z,100.00
2022-07-26T08:45:50.693Z,100.00
2022-07-26T08:48:19.444Z,100.00
2022-07-26T08:50:48.709Z,100.00
2022-07-26T08:53:17.483Z,100.00
2022-07-26T08:56:06.044Z,100.00
2022-07-26T08:58:16.744Z,100.00
2022-07-26T09:00:45.581Z,100.00
2022-07-26T09:03:26.734Z,100.00
2022-07-26T09:05:55.507Z,100.00
2022-07-26T09:08:28.884Z,100.00
2022-07-26T09:10:57.747Z,100.00
2022-07-26T09:13:26.463Z,100.00
2022-07-26T09:16:02.462Z,100.00
2022-07-26T09:18:31.637Z,100.00
2022-07-26T09:21:02.224Z,100.00
2022-07-26T09:23:32.664Z,100.00
2022-07-26T09:26:02.984Z,100.00
2022-07-26T09:28:32.800Z,100.00
2022-07-26T09:31:04.422Z,100.00
2022-07-26T09:33:46.972Z,100.00
2022-07-26T09:36:15.739Z,100.00
2022-07-26T09:38:45.431Z,100.00
2022-07-26T09:41:24.793Z,100.00
2022-07-26T09:43:54.748Z,100.00
2022-07-26T09:46:26.324Z,100.00
2022-07-26T09:49:12.194Z,100.00
2022-07-26T09:51:36.566Z,100.00
2022-07-26T09:54:05.666Z,100.00
2022-07-26T09:56:35.903Z,100.00
2022-07-26T09:59:04.946Z,100.00
2022-07-26T10:01:33.767Z,100.00
2022-07-26T10:04:02.460Z,99.45
2022-07-26T10:06:31.256Z,100.00
2022-07-26T10:09:01.240Z,99.30
2022-07-26T10:11:31.457Z,100.00
2022-07-26T10:14:00.346Z,97.97
2022-07-26T10:16:30.902Z,96.71
2022-07-26T10:19:02.962Z,97.32
2022-07-26T10:21:32.088Z,96.43
2022-07-26T10:24:04.587Z,97.59
2022-07-26T10:26:37.707Z,97.52
2022-07-26T10:29:14.073Z,97.47
2022-07-26T10:31:44.508Z,94.56
2022-07-26T10:34:34.269Z,95.75
2022-07-26T10:37:04.381Z,97.19
2022-07-26T10:39:34.493Z,100.00
2022-07-26T10:42:04.929Z,97.66
2022-07-26T10:44:34.631Z,95.86
2022-07-26T10:47:11.398Z,98.31
2022-07-26T10:49:41.617Z,93.44
2022-07-26T10:52:20.272Z,94.38
2022-07-26T10:54:53.235Z,92.50
2022-07-26T10:57:22.012Z,93.01
2022-07-26T10:59:56.225Z,99.08
2022-07-26T11:02:22.627Z,94.75
2022-07-26T11:04:51.360Z,92.89
2022-07-26T11:07:20.323Z,92.98
2022-07-26T11:09:49.197Z,94.79
2022-07-26T11:12:18.617Z,91.94
2022-07-26T11:14:48.498Z,98.88
2022-07-26T11:17:27.972Z,90.35
2022-07-26T11:19:57.023Z,90.33
2022-07-26T11:22:32.530Z,92.85
2022-07-26T11:25:01.406Z,90.43
2022-07-26T11:27:30.195Z,91.78
2022-07-26T11:30:02.268Z,91.01
2022-07-26T11:32:31.682Z,91.83
2022-07-26T11:35:02.365Z,89.87
2022-07-26T11:37:31.408Z,90.96
2022-07-26T11:40:00.315Z,88.76
2022-07-26T11:42:29.177Z,91.67
2022-07-26T11:44:58.047Z,91.54
2022-07-26T11:47:26.944Z,86.73
2022-07-26T11:50:18.280Z,89.78
2022-07-26T11:52:28.326Z,88.94
2022-07-26T11:54:57.275Z,94.80
2022-07-26T11:57:30.825Z,92.91
2022-07-26T12:00:00.791Z,90.98
2022-07-26T12:02:31.846Z,92.25
2022-07-26T12:05:05.170Z,92.04
2022-07-26T12:07:34.984Z,96.48
2022-07-26T12:10:04.105Z,90.70
2022-07-26T12:12:33.027Z,95.59
2022-07-26T12:15:07.059Z,92.39
2022-07-26T12:17:36.285Z,91.75
2022-07-26T12:20:11.833Z,91.23
2022-07-26T12:22:41.396Z,90.12
2022-07-26T12:25:10.340Z,90.53
2022-07-26T12:27:40.670Z,88.46
2022-07-26T12:30:10.824Z,88.04
2022-07-26T12:32:42.098Z,91.14
2022-07-26T12:35:12.315Z,89.77
2022-07-26T12:37:48.488Z,89.82
2022-07-26T12:40:18.763Z,95.46
2022-07-26T12:42:53.784Z,91.11
2022-07-26T12:45:24.175Z,93.21
2022-07-26T12:47:53.971Z,90.49
2022-07-26T12:50:23.679Z,90.48
2022-07-26T12:52:53.189Z,92.30
2022-07-26T12:55:22.503Z,92.24
2022-07-26T12:57:51.284Z,94.89
2022-07-26T13:00:21.979Z,94.03
2022-07-26T13:02:51.204Z,91.33
2022-07-26T13:05:19.959Z,91.07
2022-07-26T13:07:48.895Z,92.26
2022-07-26T13:10:35.070Z,91.58
2022-07-26T13:12:48.308Z,92.21
2022-07-26T13:15:17.114Z,92.80
2022-07-26T13:17:45.987Z,90.92
2022-07-26T13:20:14.935Z,91.86
2022-07-26T13:22:45.320Z,91.81
2022-07-26T13:25:14.307Z,95.14
2022-07-26T13:27:45.077Z,91.99
2022-07-26T13:30:14.082Z,92.17
2022-07-26T13:32:43.194Z,92.18
2022-07-26T13:35:11.915Z,92.08
2022-07-26T13:37:41.257Z,90.98
2022-07-26T13:40:10.522Z,90.97
2022-07-26T13:42:39.407Z,91.21
2022-07-26T13:45:08.714Z,89.55
2022-07-26T13:47:38.521Z,87.03
2022-07-26T13:50:07.974Z,87.10
2022-07-26T13:52:36.757Z,86.13
2022-07-26T13:55:06.609Z,83.33
2022-07-26T13:57:47.211Z,82.92
2022-07-26T14:00:06.384Z,84.99
2022-07-26T14:02:35.228Z,82.56
2022-07-26T14:05:04.031Z,83.82
2022-07-26T14:07:32.735Z,80.00
2022-07-26T14:10:01.456Z,78.91
2022-07-26T14:12:30.162Z,81.59
2022-07-26T14:14:59.858Z,76.40
2022-07-26T14:17:28.561Z,78.48
2022-07-26T14:19:57.291Z,79.49
2022-07-26T14:22:26.141Z,78.48
2022-07-26T14:24:54.910Z,78.14
2022-07-26T14:27:23.895Z,74.96
2022-07-26T14:29:52.693Z,76.67
2022-07-26T14:32:22.540Z,73.98
2022-07-26T14:34:51.855Z,72.46
2022-07-26T14:37:42.524Z,68.59
2022-07-26T14:39:50.900Z,70.42
2022-07-26T14:42:19.614Z,69.00
2022-07-26T14:44:48.329Z,63.65
2022-07-26T14:47:17.031Z,67.10
2022-07-26T14:49:45.816Z,63.77
2022-07-26T14:52:15.682Z,66.17
2022-07-26T14:54:44.574Z,63.60
2022-07-26T14:57:13.318Z,61.75
2022-07-26T14:59:42.049Z,62.18
2022-07-26T15:02:11.600Z,60.43
2022-07-26T15:04:40.445Z,64.15
2022-07-26T15:07:09.122Z,62.36
2022-07-26T15:09:37.921Z,61.18
2022-07-26T15:12:06.770Z,61.87
2022-07-26T15:14:36.278Z,59.61
2022-07-26T15:17:05.076Z,61.49
2022-07-26T15:19:35.210Z,60.90
2022-07-26T15:22:05.168Z,59.11
2022-07-26T15:24:37.798Z,58.38
2022-07-26T15:27:05.011Z,58.82
2022-07-26T15:29:34.276Z,59.98
2022-07-26T15:32:03.468Z,57.88
2022-07-26T15:34:32.745Z,57.82
2022-07-26T15:37:01.946Z,61.17
2022-07-26T15:39:30.641Z,57.64
2022-07-26T15:42:05.823Z,56.00
2022-07-26T15:44:31.418Z,57.14
2022-07-26T15:47:00.216Z,57.58
2022-07-26T15:49:29.257Z,56.37
2022-07-26T15:51:58.034Z,55.80
2022-07-26T15:54:26.918Z,57.80
2022-07-26T15:56:55.642Z,56.04
2022-07-26T15:59:24.588Z,56.08
2022-07-26T16:01:53.348Z,57.41
2022-07-26T16:04:22.041Z,57.42
2022-07-26T16:06:50.773Z,58.81
2022-07-26T16:09:19.996Z,56.42
2022-07-26T16:11:49.699Z,59.57
2022-07-26T16:14:18.428Z,58.86
2022-07-26T16:16:47.261Z,59.62
2022-07-26T16:19:16.213Z,59.44
2022-07-26T16:21:45.896Z,61.03
2022-07-26T16:24:14.612Z,60.75
2022-07-26T16:26:43.680Z,59.89
2022-07-26T16:29:12.946Z,59.24
2022-07-26T16:31:41.981Z,59.60
2022-07-26T16:34:11.066Z,60.17
2022-07-26T16:36:40.165Z,58.39
2022-07-26T16:39:09.328Z,59.06
2022-07-26T16:41:38.267Z,58.11
2022-07-26T16:44:07.058Z,59.79
2022-07-26T16:46:35.938Z,59.13
2022-07-26T16:49:05.451Z,58.12
2022-07-26T16:51:34.805Z,58.97
2022-07-26T16:54:04.110Z,63.25
2022-07-26T16:56:32.950Z,60.74
2022-07-26T16:59:01.669Z,60.12
2022-07-26T17:01:30.498Z,60.00
2022-07-26T17:03:59.273Z,59.89
2022-07-26T17:06:28.002Z,60.96
2022-07-26T17:08:56.704Z,60.76
2022-07-26T17:11:25.445Z,58.81
2022-07-26T17:13:54.152Z,59.29
2022-07-26T17:16:24.597Z,58.20
2022-07-26T17:18:53.897Z,59.46
2022-07-26T17:21:22.704Z,60.48
2022-07-26T17:23:52.257Z,59.42
2022-07-26T17:26:21.970Z,59.83
2022-07-26T17:28:51.658Z,60.17
2022-07-26T17:31:20.381Z,58.12
2022-07-26T17:33:50.565Z,59.43
2022-07-26T17:36:20.138Z,60.11
2022-07-26T17:38:48.938Z,61.38
2022-07-26T17:41:19.370Z,60.31
2022-07-26T17:43:48.230Z,60.27
2022-07-26T17:46:16.997Z,59.31
2022-07-26T17:48:47.154Z,60.43
2022-07-26T17:51:17.553Z,60.18
2022-07-26T17:53:49.784Z,61.50
2022-07-26T17:56:17.532Z,61.10
2022-07-26T17:58:46.268Z,62.21
2022-07-26T18:01:15.190Z,61.69
2022-07-26T18:03:44.035Z,62.19
2022-07-26T18:06:12.822Z,63.92
2022-07-26T18:08:41.562Z,65.26
2022-07-26T18:11:10.448Z,63.40
2022-07-26T18:13:39.607Z,65.54
2022-07-26T18:16:08.400Z,64.52
2022-07-26T18:18:37.102Z,65.20
2022-07-26T18:21:05.873Z,64.64
2022-07-26T18:23:34.553Z,66.08
2022-07-26T18:26:03.265Z,65.56
2022-07-26T18:28:31.967Z,65.89
2022-07-26T18:31:01.216Z,68.27
2022-07-26T18:33:31.810Z,69.09
2022-07-26T18:36:01.496Z,68.47
2022-07-26T18:38:30.211Z,69.09
2022-07-26T18:40:58.922Z,69.68
2022-07-26T18:43:28.581Z,71.00
2022-07-26T18:45:57.433Z,75.04
2022-07-26T18:48:26.344Z,74.20
2022-07-26T18:50:56.831Z,75.73
2022-07-26T18:53:25.555Z,77.14
2022-07-26T18:55:54.482Z,79.22
2022-07-26T18:58:27.431Z,79.73
2022-07-26T19:00:54.499Z,80.48
2022-07-26T19:03:23.278Z,80.72
2022-07-26T19:05:51.983Z,79.02
2022-07-26T19:08:20.717Z,79.37
2022-07-26T19:10:49.407Z,78.35
2022-07-26T19:13:19.081Z,79.30
2022-07-26T19:15:48.028Z,80.21
2022-07-26T19:18:17.174Z,80.54
2022-07-26T19:20:46.073Z,81.91
2022-07-26T19:23:14.789Z,82.94
2022-07-26T19:25:43.518Z,83.10
2022-07-26T19:28:12.384Z,83.27
2022-07-26T19:30:41.109Z,85.30
2022-07-26T19:33:10.125Z,85.16
2022-07-26T19:35:39.588Z,86.62
2022-07-26T19:38:08.369Z,86.53
2022-07-26T19:40:38.079Z,87.62
2022-07-26T19:43:06.804Z,88.21
2022-07-26T19:45:35.532Z,88.68
2022-07-26T19:48:05.157Z,89.06
2022-07-26T19:50:34.046Z,90.23
2022-07-26T19:53:02.788Z,92.13
2022-07-26T19:55:31.478Z,94.63
2022-07-26T19:58:00.213Z,95.21
2022-07-26T20:00:29.397Z,94.56
2022-07-26T20:02:58.136Z,94.69
2022-07-26T20:05:26.872Z,96.81
2022-07-26T20:07:55.608Z,98.10
2022-07-26T20:10:28.563Z,99.44
2022-07-26T20:12:54.754Z,100.00
2022-07-26T20:15:23.590Z,99.33
2022-07-26T20:17:52.436Z,100.00
2022-07-26T20:20:22.931Z,100.00
2022-07-26T20:22:51.620Z,100.00
2022-07-26T20:25:21.866Z,100.00
2022-07-26T20:27:51.474Z,100.00
2022-07-26T20:30:20.875Z,100.00
2022-07-26T20:32:49.682Z,100.00
2022-07-26T20:35:18.488Z,100.00
2022-07-26T20:37:47.331Z,100.00
2022-07-26T20:40:18.073Z,100.00
2022-07-26T20:42:50.026Z,100.00
2022-07-26T20:45:17.273Z,100.00
2022-07-26T20:47:46.222Z,100.00
2022-07-26T20:50:15.166Z,100.00
2022-07-26T20:52:45.070Z,100.00
2022-07-26T20:55:14.342Z,100.00
2022-07-26T20:57:43.063Z,100.00
2022-07-26T21:00:12.527Z,100.00
2022-07-26T21:02:41.466Z,100.00
2022-07-26T21:05:11.126Z,100.00
2022-07-26T21:07:55.135Z,100.00
2022-07-26T21:10:11.165Z,100.00
2022-07-26T21:12:40.504Z,100.00
2022-07-26T21:15:09.472Z,100.00
2022-07-26T21:17:38.247Z,100.00
2022-07-26T21:20:07.661Z,100.00
2022-07-26T21:22:36.568Z,100.00
2022-07-26T21:25:07.252Z,100.00
2022-07-26T21:27:35.966Z,100.00
2022-07-26T21:30:05.960Z,100.00
2022-07-26T21:32:35.222Z,100.00
2022-07-26T21:35:04.190Z,100.00
2022-07-26T21:37:33.035Z,100.00
2022-07-26T21:40:01.777Z,100.00
2022-07-26T21:42:30.561Z,100.00
2022-07-26T21:44:59.325Z,100.00
2022-07-26T21:47:28.051Z,100.00
2022-07-26T21:49:56.784Z,100.00
2022-07-26T21:52:25.496Z,100.00
2022-07-26T21:54:54.238Z,100.00
2022-07-26T21:57:23.925Z,100.00
2022-07-26T21:59:52.815Z,100.00
2022-07-26T22:02:21.680Z,100.00
2022-07-26T22:04:50.871Z,100.00
2022-07-26T22:07:19.796Z,100.00
2022-07-26T22:09:48.589Z,100.00
2022-07-26T22:12:17.440Z,100.00
2022-07-26T22:14:47.596Z,100.00
2022-07-26T22:17:16.595Z,100.00
2022-07-26T22:19:45.378Z,100.00
2022-07-26T22:22:14.127Z,100.00
2022-07-26T22:24:42.935Z,100.00
2022-07-26T22:27:11.705Z,100.00
2022-07-26T22:29:40.534Z,100.00
2022-07-26T22:32:09.381Z,100.00
2022-07-26T22:34:38.202Z,100.00
2022-07-26T22:37:06.969Z,100.00
2022-07-26T22:39:35.792Z,100.00
2022-07-26T22:42:15.249Z,100.00
2022-07-26T22:44:35.686Z,100.00
2022-07-26T22:47:05.294Z,100.00
2022-07-26T22:49:34.194Z,100.00
2022-07-26T22:52:03.116Z,100.00
2022-07-26T22:54:31.988Z,100.00
2022-07-26T22:57:00.777Z,100.00
2022-07-26T22:59:30.157Z,100.00
2022-07-26T23:01:59.399Z,100.00
2022-07-26T23:04:28.189Z,100.00
2022-07-26T23:06:57.183Z,100.00
2022-07-26T23:09:27.562Z,100.00
2022-07-26T23:11:56.396Z,100.00
2022-07-26T23:14:25.187Z,100.00
2022-07-26T23:16:54.210Z,100.00
2022-07-26T23:19:23.277Z,100.00
2022-07-26T23:21:52.065Z,100.00
2022-07-26T23:24:24.616Z,100.00
2022-07-26T23:26:54.516Z,100.00
2022-07-26T23:29:23.492Z,100.00
2022-07-26T23:31:52.275Z,100.00
2022-07-26T23:34:21.036Z,100.00
2022-07-26T23:36:49.741Z,100.00
2022-07-26T23:39:18.549Z,100.00
2022-07-26T23:41:47.259Z,100.00
2022-07-26T23:44:16.026Z,100.00
2022-07-26T23:46:44.853Z,100.00
2022-07-26T23:49:14.242Z,100.00
2022-07-26T23:51:43.532Z,100.00
2022-07-26T23:54:12.244Z,100.00
2022-07-26T23:56:40.972Z,100.00
2022-07-26T23:59:09.995Z,100.00
